createdAt,value
2023-06-10T00:00:21.787Z,71.83
2023-06-10T00:02:48.586Z,72.24
2023-06-10T00:05:17.404Z,72.31
2023-06-10T00:07:44.141Z,72.00
2023-06-10T00:10:11.850Z,72.45
2023-06-10T00:12:39.714Z,72.73
2023-06-10T00:15:07.974Z,72.58
2023-06-10T00:17:35.343Z,72.81
2023-06-10T00:20:05.986Z,72.43
2023-06-10T00:22:33.487Z,72.55
2023-06-10T00:25:00.253Z,72.84
2023-06-10T00:27:32.524Z,73.25
2023-06-10T00:30:01.050Z,72.90
2023-06-10T00:32:27.668Z,72.86
2023-06-10T00:34:55.823Z,72.45
2023-06-10T00:37:22.547Z,73.19
2023-06-10T00:39:49.747Z,73.19
2023-06-10T00:42:16.440Z,72.96
2023-06-10T00:44:43.226Z,73.36
2023-06-10T00:47:10.755Z,73.44
2023-06-10T00:49:37.746Z,73.46
2023-06-10T00:52:05.971Z,73.35
2023-06-10T00:54:33.943Z,73.10
2023-06-10T00:57:02.465Z,73.27
2023-06-10T00:59:33.245Z,73.87
2023-06-10T01:02:00.140Z,73.52
2023-06-10T01:04:26.766Z,73.24
2023-06-10T01:07:10.558Z,73.33
2023-06-10T01:09:46.582Z,74.27
2023-06-10T01:12:20.678Z,73.87
2023-06-10T01:14:49.898Z,74.22
2023-06-10T01:17:18.002Z,75.08
2023-06-10T01:19:45.621Z,74.74
2023-06-10T01:22:17.037Z,74.73
2023-06-10T01:24:45.052Z,75.21
2023-06-10T01:27:14.340Z,75.28
2023-06-10T01:29:49.452Z,75.54
2023-06-10T01:32:19.591Z,75.13
2023-06-10T01:34:46.875Z,75.45
2023-06-10T01:37:14.816Z,75.78
2023-06-10T01:39:41.920Z,75.32
2023-06-10T01:42:11.558Z,75.85
2023-06-10T01:44:40.368Z,75.99
2023-06-10T01:47:08.934Z,76.72
2023-06-10T01:49:35.852Z,76.64
2023-06-10T01:52:02.596Z,76.47
2023-06-10T01:54:29.422Z,76.59
2023-06-10T01:56:56.129Z,76.20
2023-06-10T01:59:22.916Z,76.93
2023-06-10T02:01:49.588Z,76.17
2023-06-10T02:04:17.621Z,76.25
2023-06-10T02:06:44.352Z,76.09
2023-06-10T02:09:11.451Z,76.66
2023-06-10T02:11:38.149Z,76.77
2023-06-10T02:14:04.910Z,76.68
2023-06-10T02:16:32.346Z,76.84
2023-06-10T02:18:59.806Z,76.35
2023-06-10T02:21:28.287Z,75.84
2023-06-10T02:23:54.986Z,76.41
2023-06-10T02:26:22.116Z,77.05
2023-06-10T02:28:48.920Z,77.19
2023-06-10T02:31:15.706Z,77.10
2023-06-10T02:33:43.050Z,76.90
2023-06-10T02:36:14.145Z,77.88
2023-06-10T02:38:41.539Z,78.16
2023-06-10T02:41:08.325Z,78.47
2023-06-10T02:43:35.997Z,78.45
2023-06-10T02:46:03.375Z,78.76
2023-06-10T02:48:31.381Z,79.43
2023-06-10T02:50:58.696Z,79.85
2023-06-10T02:53:32.588Z,79.27
2023-06-10T02:56:06.000Z,79.19
2023-06-10T02:58:33.163Z,78.86
2023-06-10T03:00:59.884Z,78.62
2023-06-10T03:03:29.203Z,79.57
2023-06-10T03:06:02.679Z,79.13
2023-06-10T03:08:30.969Z,79.62
2023-06-10T03:11:00.049Z,79.78
2023-06-10T03:13:30.109Z,79.62
2023-06-10T03:15:57.895Z,79.51
2023-06-10T03:18:27.948Z,78.88
2023-06-10T03:20:56.169Z,78.42
2023-06-10T03:23:24.596Z,79.45
2023-06-10T03:25:51.842Z,79.50
2023-06-10T03:28:20.222Z,80.05
2023-06-10T03:30:48.005Z,80.35
2023-06-10T03:33:15.103Z,79.72
2023-06-10T03:35:43.160Z,79.70
2023-06-10T03:38:10.014Z,79.68
2023-06-10T03:40:37.251Z,79.44
2023-06-10T03:43:04.904Z,79.49
2023-06-10T03:45:33.223Z,80.21
2023-06-10T03:48:00.481Z,79.77
2023-06-10T03:50:33.882Z,79.70
2023-06-10T03:53:00.848Z,79.81
2023-06-10T03:55:28.501Z,79.78
2023-06-10T03:57:56.468Z,79.93
2023-06-10T04:00:23.162Z,79.16
2023-06-10T04:02:52.822Z,80.11
2023-06-10T04:05:29.967Z,79.48
2023-06-10T04:07:58.071Z,78.82
2023-06-10T04:10:24.859Z,79.67
2023-06-10T04:12:51.693Z,78.76
2023-06-10T04:15:19.259Z,78.73
2023-06-10T04:17:46.888Z,78.55
2023-06-10T04:20:13.794Z,78.24
2023-06-10T04:22:45.339Z,78.70
2023-06-10T04:25:12.926Z,78.44
2023-06-10T04:27:41.471Z,78.39
2023-06-10T04:30:08.596Z,77.98
2023-06-10T04:32:37.777Z,78.27
2023-06-10T04:35:07.987Z,77.84
2023-06-10T04:37:35.124Z,77.52
2023-06-10T04:40:02.540Z,77.19
2023-06-10T04:42:30.055Z,77.00
2023-06-10T04:44:56.801Z,76.39
2023-06-10T04:47:24.313Z,76.08
2023-06-10T04:49:50.994Z,75.69
2023-06-10T04:52:19.343Z,75.65
2023-06-10T04:54:46.658Z,75.05
2023-06-10T04:57:13.433Z,74.60
2023-06-10T04:59:40.143Z,73.87
2023-06-10T05:02:07.030Z,74.00
2023-06-10T05:04:33.792Z,73.69
2023-06-10T05:07:00.737Z,72.80
2023-06-10T05:09:27.616Z,72.20
2023-06-10T05:11:55.457Z,71.94
2023-06-10T05:14:22.152Z,71.56
2023-06-10T05:16:49.469Z,71.19
2023-06-10T05:19:17.520Z,70.83
2023-06-10T05:21:45.474Z,70.65
2023-06-10T05:24:12.693Z,70.52
2023-06-10T05:26:40.171Z,70.61
2023-06-10T05:29:07.009Z,69.21
2023-06-10T05:31:33.893Z,68.53
2023-06-10T05:34:01.413Z,68.49
2023-06-10T05:36:28.682Z,68.05
2023-06-10T05:38:56.052Z,68.35
2023-06-10T05:41:23.260Z,67.29
2023-06-10T05:43:50.686Z,67.15
2023-06-10T05:46:17.882Z,66.95
2023-06-10T05:48:44.930Z,66.18
2023-06-10T05:51:12.365Z,65.66
2023-06-10T05:53:40.149Z,65.09
2023-06-10T05:56:06.876Z,65.00
2023-06-10T05:58:33.819Z,65.27
2023-06-10T06:01:01.447Z,65.20
2023-06-10T06:03:30.272Z,64.51
2023-06-10T06:05:57.247Z,64.63
2023-06-10T06:08:24.284Z,63.93
2023-06-10T06:10:51.430Z,63.65
2023-06-10T06:13:18.430Z,63.53
2023-06-10T06:15:45.862Z,62.64
2023-06-10T06:18:12.986Z,62.46
2023-06-10T06:20:39.841Z,61.36
2023-06-10T06:23:06.845Z,61.35
2023-06-10T06:25:34.255Z,60.71
2023-06-10T06:28:00.963Z,60.05
2023-06-10T06:30:27.681Z,59.69
2023-06-10T06:32:54.880Z,59.83
2023-06-10T06:35:21.657Z,59.64
2023-06-10T06:37:48.489Z,60.16
2023-06-10T06:40:22.968Z,59.65
2023-06-10T06:42:49.921Z,59.13
2023-06-10T06:45:36.944Z,59.09
2023-06-10T06:48:04.008Z,59.02
2023-06-10T06:50:30.905Z,58.24
2023-06-10T06:52:57.607Z,58.27
2023-06-10T06:55:24.385Z,58.01
2023-06-10T06:57:51.084Z,57.85
2023-06-10T07:00:18.206Z,57.97
2023-06-10T07:02:45.042Z,57.81
2023-06-10T07:05:11.995Z,57.10
2023-06-10T07:07:39.014Z,57.79
2023-06-10T07:10:06.349Z,57.21
2023-06-10T07:12:33.164Z,56.86
2023-06-10T07:15:00.057Z,56.24
2023-06-10T07:17:28.178Z,56.19
2023-06-10T07:19:58.441Z,55.27
2023-06-10T07:22:25.593Z,53.64
2023-06-10T07:24:53.056Z,54.00
2023-06-10T07:27:19.838Z,53.04
2023-06-10T07:29:46.468Z,52.34
2023-06-10T07:32:13.190Z,51.85
2023-06-10T07:34:40.054Z,52.14
2023-06-10T07:37:07.322Z,51.83
2023-06-10T07:39:34.104Z,51.08
2023-06-10T07:42:00.838Z,50.96
2023-06-10T07:44:27.714Z,51.84
2023-06-10T07:46:54.558Z,51.58
2023-06-10T07:49:21.441Z,51.74
2023-06-10T07:51:48.317Z,52.58
2023-06-10T07:54:16.052Z,53.34
2023-06-10T07:56:44.575Z,53.26
2023-06-10T07:59:11.246Z,52.65
2023-06-10T08:01:40.439Z,52.36
2023-06-10T08:04:08.204Z,51.86
2023-06-10T08:06:35.025Z,53.52
2023-06-10T08:09:01.753Z,52.82
2023-06-10T08:11:29.453Z,53.03
2023-06-10T08:13:56.185Z,51.40
2023-06-10T08:16:23.047Z,51.64
2023-06-10T08:18:54.095Z,49.87
2023-06-10T08:21:22.479Z,50.79
2023-06-10T08:23:49.362Z,51.25
2023-06-10T08:26:16.181Z,51.19
2023-06-10T08:28:42.888Z,51.37
2023-06-10T08:31:09.652Z,50.88
2023-06-10T08:33:36.358Z,50.86
2023-06-10T08:36:03.266Z,50.89
2023-06-10T08:38:30.093Z,50.56
2023-06-10T08:41:01.878Z,50.34
2023-06-10T08:43:28.581Z,49.93
2023-06-10T08:45:59.400Z,49.78
2023-06-10T08:48:28.724Z,49.41
2023-06-10T08:50:56.748Z,48.76
2023-06-10T08:53:25.201Z,48.99
2023-06-10T08:55:55.139Z,48.51
2023-06-10T08:58:22.126Z,48.57
2023-06-10T09:00:48.927Z,48.37
2023-06-10T09:03:15.913Z,47.98
2023-06-10T09:05:43.169Z,47.72
2023-06-10T09:08:10.370Z,47.17
2023-06-10T09:10:37.192Z,47.43
2023-06-10T09:13:04.044Z,46.27
2023-06-10T09:15:30.740Z,45.93
2023-06-10T09:17:57.646Z,46.71
2023-06-10T09:20:24.349Z,45.84
2023-06-10T09:22:51.172Z,46.04
2023-06-10T09:25:18.376Z,45.63
2023-06-10T09:27:55.052Z,46.27
2023-06-10T09:30:30.057Z,45.72
2023-06-10T09:33:01.632Z,45.77
2023-06-10T09:35:30.212Z,45.39
2023-06-10T09:38:01.473Z,44.62
2023-06-10T09:40:31.483Z,45.15
2023-06-10T09:43:00.358Z,44.16
2023-06-10T09:45:33.870Z,45.00
2023-06-10T09:48:01.824Z,44.89
2023-06-10T09:50:29.146Z,43.76
2023-06-10T09:52:56.056Z,44.42
2023-06-10T09:55:22.890Z,43.68
2023-06-10T09:57:55.050Z,44.75
2023-06-10T10:00:23.671Z,43.05
2023-06-10T10:02:53.422Z,43.39
2023-06-10T10:05:24.097Z,42.72
2023-06-10T10:07:52.226Z,42.72
2023-06-10T10:10:21.207Z,44.05
2023-06-10T10:12:49.199Z,44.64
2023-06-10T10:15:19.415Z,44.59
2023-06-10T10:17:51.638Z,44.24
2023-06-10T10:20:21.948Z,44.40
2023-06-10T10:22:51.057Z,44.65
2023-06-10T10:25:24.549Z,43.22
2023-06-10T10:28:13.051Z,43.44
2023-06-10T10:31:00.870Z,43.49
2023-06-10T10:33:36.317Z,43.46
2023-06-10T10:36:03.439Z,43.29
2023-06-10T10:38:30.481Z,43.27
2023-06-10T10:41:00.731Z,43.54
2023-06-10T10:43:29.108Z,42.56
2023-06-10T10:46:02.882Z,42.87
2023-06-10T10:48:38.283Z,42.91
2023-06-10T10:51:05.174Z,41.52
2023-06-10T10:53:31.830Z,42.59
2023-06-10T10:56:09.838Z,41.33
2023-06-10T10:58:37.856Z,40.69
2023-06-10T11:01:15.834Z,39.01
2023-06-10T11:03:48.212Z,38.66
2023-06-10T11:06:16.742Z,38.58
2023-06-10T11:08:45.011Z,37.87
2023-06-10T11:11:27.024Z,39.13
2023-06-10T11:14:03.053Z,38.53
2023-06-10T11:16:30.400Z,37.43
2023-06-10T11:18:57.853Z,36.83
2023-06-10T11:21:28.367Z,36.66
2023-06-10T11:24:01.616Z,36.57
2023-06-10T11:26:32.396Z,37.03
2023-06-10T11:28:59.198Z,36.68
2023-06-10T11:31:34.017Z,38.72
2023-06-10T11:34:04.332Z,38.56
2023-06-10T11:36:31.406Z,36.91
2023-06-10T11:38:59.132Z,37.75
2023-06-10T11:41:30.291Z,37.12
2023-06-10T11:43:58.207Z,38.78
2023-06-10T11:46:27.813Z,38.25
2023-06-10T11:48:56.284Z,37.93
2023-06-10T11:51:23.360Z,38.22
2023-06-10T11:53:50.520Z,36.70
2023-06-10T11:56:30.460Z,38.43
2023-06-10T11:59:08.681Z,37.69
2023-06-10T12:01:40.632Z,37.66
2023-06-10T12:04:10.694Z,36.99
2023-06-10T12:06:50.165Z,38.39
2023-06-10T12:09:43.396Z,38.24
2023-06-10T12:12:11.767Z,37.26
2023-06-10T12:15:00.356Z,36.43
2023-06-10T12:17:33.801Z,37.28
2023-06-10T12:20:01.651Z,36.46
2023-06-10T12:22:28.579Z,37.03
2023-06-10T12:25:04.628Z,37.15
2023-06-10T12:27:32.831Z,36.15
2023-06-10T12:30:04.922Z,35.96
2023-06-10T12:32:43.930Z,35.51
2023-06-10T12:35:14.457Z,35.33
2023-06-10T12:37:43.434Z,35.24
2023-06-10T12:40:11.677Z,33.08
2023-06-10T12:42:39.037Z,33.92
2023-06-10T12:45:08.682Z,33.19
2023-06-10T12:47:39.142Z,32.90
2023-06-10T12:50:07.009Z,33.58
2023-06-10T12:52:33.747Z,33.27
2023-06-10T12:55:01.772Z,32.71
2023-06-10T12:57:28.980Z,32.22
2023-06-10T12:59:58.428Z,32.81
2023-06-10T13:02:25.610Z,33.54
2023-06-10T13:04:52.480Z,33.32
2023-06-10T13:07:19.328Z,34.22
2023-06-10T13:09:50.034Z,34.52
2023-06-10T13:12:21.058Z,34.38
2023-06-10T13:14:54.886Z,34.82
2023-06-10T13:17:22.960Z,33.49
2023-06-10T13:19:50.980Z,33.43
2023-06-10T13:22:17.780Z,32.79
2023-06-10T13:24:44.898Z,33.72
2023-06-10T13:27:11.645Z,33.27
2023-06-10T13:29:38.412Z,32.62
2023-06-10T13:32:05.377Z,30.54
2023-06-10T13:34:32.079Z,31.72
2023-06-10T13:36:58.961Z,31.35
2023-06-10T13:39:25.742Z,31.33
2023-06-10T13:41:53.178Z,30.39
2023-06-10T13:44:20.004Z,31.10
2023-06-10T13:46:49.887Z,31.30
2023-06-10T13:49:17.026Z,30.46
2023-06-10T13:51:43.766Z,30.08
2023-06-10T13:54:10.519Z,30.88
2023-06-10T13:56:39.911Z,31.18
2023-06-10T13:59:06.747Z,31.09
2023-06-10T14:01:33.429Z,32.21
2023-06-10T14:04:00.361Z,31.62
2023-06-10T14:06:27.743Z,31.26
2023-06-10T14:08:55.750Z,31.75
2023-06-10T14:11:22.478Z,30.81
2023-06-10T14:13:49.409Z,30.47
2023-06-10T14:16:16.099Z,29.46
2023-06-10T14:18:42.817Z,31.19
2023-06-10T14:21:09.562Z,30.15
2023-06-10T14:23:36.452Z,29.34
2023-06-10T14:26:04.180Z,29.57
2023-06-10T14:28:31.003Z,28.48
2023-06-10T14:30:58.820Z,28.78
2023-06-10T14:33:25.701Z,29.03
2023-06-10T14:35:52.357Z,28.98
2023-06-10T14:38:19.484Z,29.82
2023-06-10T14:40:46.180Z,29.71
2023-06-10T14:43:13.027Z,30.43
2023-06-10T14:45:43.078Z,31.40
2023-06-10T14:48:09.978Z,31.47
2023-06-10T14:50:37.045Z,31.36
2023-06-10T14:53:03.976Z,30.46
2023-06-10T14:55:30.661Z,31.83
2023-06-10T14:57:58.860Z,30.08
2023-06-10T15:00:26.524Z,29.85
2023-06-10T15:02:54.527Z,30.14
2023-06-10T15:05:21.679Z,29.89
2023-06-10T15:07:48.832Z,29.45
2023-06-10T15:10:16.493Z,28.89
2023-06-10T15:12:43.373Z,29.70
2023-06-10T15:15:10.479Z,28.75
2023-06-10T15:17:37.851Z,30.70
2023-06-10T15:20:05.527Z,28.47
2023-06-10T15:22:34.695Z,29.17
2023-06-10T15:25:11.187Z,30.09
2023-06-10T15:27:44.009Z,29.21
2023-06-10T15:30:11.095Z,28.23
2023-06-10T15:32:37.850Z,28.18
2023-06-10T15:35:04.863Z,26.02
2023-06-10T15:37:31.671Z,25.44
2023-06-10T15:39:58.437Z,26.42
2023-06-10T15:42:27.652Z,27.18
2023-06-10T15:44:54.337Z,26.51
2023-06-10T15:47:21.764Z,24.58
2023-06-10T15:49:48.656Z,22.78
2023-06-10T15:52:15.492Z,23.64
2023-06-10T15:54:42.206Z,22.99
2023-06-10T15:57:09.564Z,21.65
2023-06-10T15:59:36.525Z,21.61
2023-06-10T16:02:04.974Z,21.75
2023-06-10T16:04:31.730Z,20.27
2023-06-10T16:06:58.727Z,20.27
2023-06-10T16:09:25.448Z,19.53
2023-06-10T16:11:52.242Z,19.52
2023-06-10T16:14:18.925Z,19.39
2023-06-10T16:16:45.790Z,18.88
2023-06-10T16:19:12.572Z,18.49
2023-06-10T16:21:41.420Z,18.62
2023-06-10T16:24:09.310Z,17.87
2023-06-10T16:26:36.145Z,18.49
2023-06-10T16:29:02.825Z,18.09
2023-06-10T16:31:29.573Z,18.40
2023-06-10T16:33:56.336Z,18.37
2023-06-10T16:36:22.982Z,20.65
2023-06-10T16:38:49.649Z,22.01
2023-06-10T16:41:16.429Z,21.96
2023-06-10T16:43:43.032Z,21.83
2023-06-10T16:46:09.780Z,21.76
2023-06-10T16:48:36.444Z,20.46
2023-06-10T16:51:03.299Z,20.18
2023-06-10T16:53:30.168Z,21.23
2023-06-10T16:55:56.983Z,20.93
2023-06-10T16:58:23.656Z,20.86
2023-06-10T17:00:50.676Z,21.21
2023-06-10T17:03:17.421Z,21.25
2023-06-10T17:05:44.224Z,21.17
2023-06-10T17:08:11.002Z,20.09
2023-06-10T17:10:37.877Z,20.21
2023-06-10T17:13:04.632Z,20.31
2023-06-10T17:15:31.436Z,20.19
2023-06-10T17:17:58.226Z,20.13
2023-06-10T17:20:24.981Z,20.57
2023-06-10T17:22:51.855Z,21.07
2023-06-10T17:25:18.591Z,20.74
2023-06-10T17:27:45.310Z,20.63
2023-06-10T17:30:12.390Z,20.50
2023-06-10T17:32:41.415Z,20.36
2023-06-10T17:35:10.000Z,22.58
2023-06-10T17:37:36.905Z,24.92
2023-06-10T17:40:04.208Z,25.96
2023-06-10T17:42:30.973Z,27.08
2023-06-10T17:44:57.690Z,25.99
2023-06-10T17:47:24.538Z,25.56
2023-06-10T17:49:51.477Z,24.79
2023-06-10T17:52:18.239Z,24.46
2023-06-10T17:54:44.964Z,24.23
2023-06-10T17:57:11.710Z,24.90
2023-06-10T17:59:38.505Z,26.23
2023-06-10T18:02:05.667Z,27.84
2023-06-10T18:04:32.546Z,30.04
2023-06-10T18:06:59.224Z,30.67
2023-06-10T18:09:27.008Z,31.46
2023-06-10T18:11:54.395Z,32.40
2023-06-10T18:14:21.146Z,33.96
2023-06-10T18:16:48.062Z,34.76
2023-06-10T18:19:16.341Z,35.45
2023-06-10T18:21:43.077Z,35.61
2023-06-10T18:24:09.908Z,35.67
2023-06-10T18:26:36.785Z,36.31
2023-06-10T18:29:03.432Z,36.64
2023-06-10T18:31:30.864Z,37.19
2023-06-10T18:33:57.612Z,38.47
2023-06-10T18:36:24.343Z,39.00
2023-06-10T18:38:51.697Z,39.12
2023-06-10T18:41:18.412Z,39.22
2023-06-10T18:43:45.035Z,40.48
2023-06-10T18:46:11.829Z,40.83
2023-06-10T18:48:40.691Z,41.11
2023-06-10T18:51:07.858Z,42.65
2023-06-10T18:53:34.556Z,42.63
2023-06-10T18:56:04.177Z,44.30
2023-06-10T18:58:33.748Z,45.90
2023-06-10T19:01:01.292Z,46.57
2023-06-10T19:03:30.054Z,47.38
2023-06-10T19:05:57.981Z,47.98
2023-06-10T19:08:24.864Z,48.02
2023-06-10T19:10:51.566Z,48.82
2023-06-10T19:13:18.539Z,49.43
2023-06-10T19:15:45.321Z,50.11
2023-06-10T19:18:12.179Z,50.09
2023-06-10T19:20:40.739Z,50.84
2023-06-10T19:23:07.622Z,51.04
2023-06-10T19:25:34.299Z,52.27
2023-06-10T19:28:01.185Z,53.50
2023-06-10T19:30:28.550Z,53.95
2023-06-10T19:32:55.528Z,54.41
2023-06-10T19:35:22.213Z,54.75
2023-06-10T19:37:48.962Z,55.08
2023-06-10T19:40:15.795Z,55.66
2023-06-10T19:42:42.583Z,55.92
2023-06-10T19:45:10.070Z,56.49
2023-06-10T19:47:37.589Z,55.95
2023-06-10T19:50:04.601Z,56.70
2023-06-10T19:52:33.113Z,56.88
2023-06-10T19:54:59.776Z,57.28
2023-06-10T19:57:27.062Z,57.77
2023-06-10T19:59:53.786Z,58.13
2023-06-10T20:02:21.506Z,59.09
2023-06-10T20:04:48.266Z,58.93
2023-06-10T20:07:15.060Z,59.09
2023-06-10T20:09:41.724Z,59.03
2023-06-10T20:12:09.136Z,59.43
2023-06-10T20:14:35.780Z,59.16
2023-06-10T20:17:02.479Z,59.81
2023-06-10T20:19:29.183Z,59.65
2023-06-10T20:21:56.917Z,59.69
2023-06-10T20:24:23.749Z,60.00
2023-06-10T20:26:50.770Z,60.57
2023-06-10T20:29:18.681Z,59.86
2023-06-10T20:31:46.748Z,60.05
2023-06-10T20:34:13.622Z,59.98
2023-06-10T20:36:40.517Z,60.23
2023-06-10T20:39:07.381Z,60.22
2023-06-10T20:41:35.605Z,59.83
2023-06-10T20:44:02.304Z,59.96
2023-06-10T20:46:29.054Z,59.53
2023-06-10T20:48:55.905Z,59.79
2023-06-10T20:51:22.938Z,60.27
2023-06-10T20:53:49.642Z,60.79
2023-06-10T20:56:16.441Z,60.49
2023-06-10T20:58:43.113Z,60.42
2023-06-10T21:01:09.920Z,61.01
2023-06-10T21:03:36.803Z,61.00
2023-06-10T21:06:03.720Z,61.39
2023-06-10T21:08:30.485Z,61.34
2023-06-10T21:10:57.357Z,61.36
2023-06-10T21:13:24.008Z,61.37
2023-06-10T21:15:50.817Z,61.65
2023-06-10T21:18:17.475Z,61.31
2023-06-10T21:20:44.251Z,61.46
2023-06-10T21:23:11.670Z,61.68
2023-06-10T21:25:38.611Z,61.91
2023-06-10T21:28:05.421Z,62.26
2023-06-10T21:30:32.134Z,62.27
2023-06-10T21:32:58.894Z,62.35
2023-06-10T21:35:25.719Z,62.02
2023-06-10T21:37:52.359Z,62.25
2023-06-10T21:40:19.872Z,62.29
2023-06-10T21:42:46.495Z,62.87
2023-06-10T21:45:13.481Z,63.33
2023-06-10T21:47:40.612Z,63.58
2023-06-10T21:50:07.914Z,63.67
2023-06-10T21:52:34.712Z,63.54
2023-06-10T21:55:01.689Z,63.56
2023-06-10T21:57:28.443Z,63.65
2023-06-10T21:59:55.283Z,64.14
2023-06-10T22:02:22.082Z,64.10
2023-06-10T22:04:49.019Z,64.06
2023-06-10T22:07:15.765Z,64.27
2023-06-10T22:09:49.443Z,64.17
2023-06-10T22:12:17.209Z,64.90
2023-06-10T22:14:44.343Z,64.36
2023-06-10T22:17:12.010Z,64.96
2023-06-10T22:19:39.956Z,65.13
2023-06-10T22:22:07.642Z,65.13
2023-06-10T22:24:34.968Z,64.83
2023-06-10T22:27:02.055Z,65.36
2023-06-10T22:29:28.810Z,64.90
2023-06-10T22:31:56.259Z,65.83
2023-06-10T22:34:23.519Z,65.68
2023-06-10T22:36:50.412Z,65.82
2023-06-10T22:39:17.184Z,66.31
2023-06-10T22:41:44.007Z,66.28
2023-06-10T22:44:10.944Z,66.44
2023-06-10T22:46:37.713Z,66.36
2023-06-10T22:49:04.930Z,66.65
2023-06-10T22:51:31.667Z,67.06
2023-06-10T22:53:58.881Z,66.90
2023-06-10T22:56:27.191Z,67.18
2023-06-10T22:58:54.095Z,67.04
2023-06-10T23:01:21.048Z,67.06
2023-06-10T23:03:48.041Z,67.17
2023-06-10T23:06:15.979Z,67.15
2023-06-10T23:08:42.759Z,67.48
2023-06-10T23:11:09.462Z,67.38
2023-06-10T23:13:36.254Z,68.03
2023-06-10T23:16:03.015Z,67.60
2023-06-10T23:18:29.794Z,68.01
2023-06-10T23:20:57.286Z,68.07
2023-06-10T23:23:33.514Z,68.38
2023-06-10T23:26:03.525Z,68.48
2023-06-10T23:28:30.325Z,69.23
2023-06-10T23:30:57.261Z,68.93
2023-06-10T23:33:24.834Z,69.29
2023-06-10T23:35:51.726Z,69.75
2023-06-10T23:38:18.501Z,69.23
2023-06-10T23:40:45.515Z,69.06
2023-06-10T23:43:15.549Z,69.31
2023-06-10T23:45:42.400Z,69.15
2023-06-10T23:48:09.336Z,69.75
2023-06-10T23:50:38.041Z,70.01
2023-06-10T23:53:06.674Z,70.42
2023-06-10T23:55:35.449Z,70.35
2023-06-10T23:58:03.504Z,70.24
